createdAt,value
2019-02-26T00:00:27.508Z,5.20
2019-02-26T00:03:02.408Z,5.20
2019-02-26T00:05:33.176Z,5.20
2019-02-26T00:08:04.306Z,5.20
2019-02-26T00:10:37.115Z,5.20
2019-02-26T00:13:09.379Z,5.30
2019-02-26T00:15:43.035Z,5.30
2019-02-26T00:18:13.957Z,5.30
2019-02-26T00:20:46.184Z,5.30
2019-02-26T00:23:19.250Z,5.30
2019-02-26T00:25:50.246Z,5.30
2019-02-26T00:28:22.065Z,5.40
2019-02-26T00:30:55.015Z,5.40
2019-02-26T00:33:27.263Z,5.40
2019-02-26T00:35:59.065Z,5.40
2019-02-26T00:38:30.183Z,5.50
2019-02-26T00:41:02.196Z,5.50
2019-02-26T00:43:34.643Z,5.50
2019-02-26T00:46:08.569Z,5.50
2019-02-26T00:48:40.692Z,5.50
2019-02-26T00:51:12.536Z,5.50
2019-02-26T00:53:43.774Z,5.50
2019-02-26T00:56:15.003Z,5.50
2019-02-26T00:58:48.361Z,5.50
2019-02-26T01:01:21.738Z,5.50
2019-02-26T01:03:53.860Z,5.40
2019-02-26T01:06:26.760Z,5.40
2019-02-26T01:08:59.013Z,5.40
2019-02-26T01:11:30.595Z,5.50
2019-02-26T01:14:01.845Z,5.50
2019-02-26T01:16:33.035Z,5.50
2019-02-26T01:19:04.287Z,5.50
2019-02-26T01:21:36.242Z,5.40
2019-02-26T01:24:08.667Z,5.50
2019-02-26T01:26:42.530Z,5.50
2019-02-26T01:29:16.047Z,5.50
2019-02-26T01:31:45.664Z,5.50
2019-02-26T01:34:18.151Z,5.50
2019-02-26T01:36:49.677Z,5.50
2019-02-26T01:39:23.380Z,5.50
2019-02-26T01:41:56.245Z,5.50
2019-02-26T01:44:30.139Z,5.50
2019-02-26T01:47:02.521Z,5.50
2019-02-26T01:49:33.240Z,5.50
2019-02-26T01:52:06.137Z,5.50
2019-02-26T01:54:37.856Z,5.50
2019-02-26T01:57:10.270Z,5.50
2019-02-26T01:59:41.499Z,5.50
2019-02-26T02:02:17.390Z,5.50
2019-02-26T02:04:46.346Z,5.40
2019-02-26T02:07:19.018Z,5.50
2019-02-26T02:09:51.290Z,5.40
2019-02-26T02:12:25.459Z,5.40
2019-02-26T02:14:56.211Z,5.40
2019-02-26T02:17:28.822Z,5.40
2019-02-26T02:20:03.038Z,5.40
2019-02-26T02:22:35.178Z,5.40
2019-02-26T02:25:07.666Z,5.50
2019-02-26T02:27:38.833Z,5.50
2019-02-26T02:30:17.917Z,5.50
2019-02-26T02:32:48.195Z,5.50
2019-02-26T02:35:19.255Z,5.50
2019-02-26T02:37:53.552Z,5.50
2019-02-26T02:40:24.571Z,5.50
2019-02-26T02:42:55.752Z,5.50
2019-02-26T02:45:27.016Z,5.50
2019-02-26T02:48:00.585Z,5.50
2019-02-26T02:50:42.870Z,5.50
2019-02-26T02:53:14.072Z,5.40
2019-02-26T02:55:46.957Z,5.40
2019-02-26T02:58:20.726Z,5.40
2019-02-26T03:00:52.239Z,5.50
2019-02-26T03:03:23.643Z,5.50
2019-02-26T03:05:54.978Z,5.50
2019-02-26T03:08:26.197Z,5.50
2019-02-26T03:10:57.409Z,5.50
2019-02-26T03:13:28.653Z,5.50
2019-02-26T03:16:01.636Z,5.50
2019-02-26T03:18:32.738Z,5.50
2019-02-26T03:21:04.807Z,5.60
2019-02-26T03:23:37.936Z,5.50
2019-02-26T03:26:12.579Z,5.50
2019-02-26T03:28:42.124Z,5.50
2019-02-26T03:31:14.837Z,5.50
2019-02-26T03:33:46.191Z,5.60
2019-02-26T03:36:19.256Z,5.60
2019-02-26T03:38:53.743Z,5.60
2019-02-26T03:41:26.152Z,5.50
2019-02-26T03:43:58.586Z,5.60
2019-02-26T03:46:30.100Z,5.60
2019-02-26T03:49:02.682Z,5.60
2019-02-26T03:51:39.053Z,5.70
2019-02-26T03:54:07.080Z,5.70
2019-02-26T03:56:38.384Z,5.70
2019-02-26T03:59:11.795Z,5.70
2019-02-26T04:01:42.385Z,5.70
2019-02-26T04:04:13.604Z,5.70
2019-02-26T04:06:46.973Z,5.70
2019-02-26T04:09:19.615Z,5.80
2019-02-26T04:11:52.929Z,5.80
2019-02-26T04:14:25.589Z,5.90
2019-02-26T04:16:58.665Z,6.00
2019-02-26T04:19:29.187Z,6.00
2019-02-26T04:22:34.619Z,6.00
2019-02-26T04:25:35.469Z,6.00
2019-02-26T04:28:30.708Z,6.00
2019-02-26T04:31:31.657Z,5.90
2019-02-26T04:34:59.156Z,5.90
2019-02-26T04:38:33.630Z,5.80
2019-02-26T04:41:24.816Z,5.70
2019-02-26T04:44:35.085Z,5.70
2019-02-26T04:47:15.290Z,5.60
2019-02-26T04:49:46.540Z,5.60
2019-02-26T04:52:17.815Z,5.50
2019-02-26T04:54:50.205Z,5.50
2019-02-26T04:57:21.407Z,5.40
2019-02-26T04:59:52.618Z,5.40
2019-02-26T05:02:24.124Z,5.30
2019-02-26T05:04:55.275Z,5.30
2019-02-26T05:07:26.499Z,5.20
2019-02-26T05:09:59.419Z,5.10
2019-02-26T05:12:33.414Z,5.10
2019-02-26T05:15:03.321Z,5.00
2019-02-26T05:17:34.505Z,5.00
2019-02-26T05:20:07.168Z,4.90
2019-02-26T05:22:38.620Z,4.90
2019-02-26T05:25:13.374Z,4.90
2019-02-26T05:27:46.032Z,4.90
2019-02-26T05:30:19.241Z,4.90
2019-02-26T05:32:51.090Z,4.70
2019-02-26T05:35:23.400Z,4.70
2019-02-26T05:37:56.174Z,4.60
2019-02-26T05:40:27.420Z,4.50
2019-02-26T05:42:59.297Z,4.50
2019-02-26T05:45:33.062Z,4.40
2019-02-26T05:48:04.316Z,4.40
2019-02-26T05:50:38.670Z,4.30
2019-02-26T05:53:10.450Z,4.30
2019-02-26T05:55:42.249Z,4.30
2019-02-26T05:58:16.392Z,4.30
2019-02-26T06:00:46.996Z,4.40
2019-02-26T06:03:18.829Z,4.50
2019-02-26T06:05:51.993Z,4.60
2019-02-26T06:08:29.112Z,4.70
2019-02-26T06:10:56.933Z,4.90
2019-02-26T06:13:29.171Z,5.00
2019-02-26T06:16:02.293Z,5.10
2019-02-26T06:18:33.840Z,5.20
2019-02-26T06:21:05.044Z,5.40
2019-02-26T06:23:36.722Z,5.50
2019-02-26T06:26:14.268Z,5.70
2019-02-26T06:28:43.559Z,5.80
2019-02-26T06:31:17.465Z,5.90
2019-02-26T06:33:50.509Z,6.00
2019-02-26T06:36:23.325Z,6.20
2019-02-26T06:38:56.434Z,6.30
2019-02-26T06:41:28.072Z,6.40
2019-02-26T06:43:59.268Z,6.50
2019-02-26T06:46:31.928Z,6.60
2019-02-26T06:49:03.232Z,6.70
2019-02-26T06:51:34.505Z,6.70
2019-02-26T06:54:05.820Z,6.80
2019-02-26T06:56:41.502Z,6.80
2019-02-26T06:59:12.258Z,6.80
2019-02-26T07:01:43.359Z,6.80
2019-02-26T07:04:14.458Z,6.80
2019-02-26T07:06:45.663Z,6.90
2019-02-26T07:09:18.227Z,6.90
2019-02-26T07:11:49.680Z,6.90
2019-02-26T07:14:22.443Z,7.00
2019-02-26T07:16:53.709Z,7.00
2019-02-26T07:19:26.197Z,7.00
2019-02-26T07:21:57.693Z,7.00
2019-02-26T07:24:28.866Z,7.10
2019-02-26T07:27:01.977Z,7.10
2019-02-26T07:29:35.199Z,7.10
2019-02-26T07:32:05.716Z,7.20
2019-02-26T07:34:37.449Z,7.20
2019-02-26T07:37:09.331Z,7.20
2019-02-26T07:39:42.049Z,7.20
2019-02-26T07:42:16.426Z,7.20
2019-02-26T07:44:47.234Z,7.20
2019-02-26T07:47:18.533Z,7.30
2019-02-26T07:49:49.738Z,7.40
2019-02-26T07:52:21.580Z,7.40
2019-02-26T07:54:53.950Z,7.50
2019-02-26T07:57:27.527Z,7.50
2019-02-26T07:59:58.020Z,7.60
2019-02-26T08:02:30.661Z,7.50
2019-02-26T08:05:03.138Z,7.50
2019-02-26T08:07:34.364Z,7.50
2019-02-26T08:10:08.118Z,7.40
2019-02-26T08:12:42.704Z,7.40
2019-02-26T08:15:16.070Z,7.50
2019-02-26T08:17:50.318Z,7.50
2019-02-26T08:20:20.123Z,7.60
2019-02-26T08:22:52.243Z,7.70
2019-02-26T08:25:24.164Z,7.70
2019-02-26T08:27:56.514Z,7.70
2019-02-26T08:30:28.367Z,7.70
2019-02-26T08:33:02.009Z,7.70
2019-02-26T08:35:32.435Z,7.70
2019-02-26T08:38:05.674Z,7.70
2019-02-26T08:40:37.658Z,7.70
2019-02-26T08:43:08.964Z,7.70
2019-02-26T08:45:40.177Z,7.70
2019-02-26T08:48:14.669Z,7.80
2019-02-26T08:50:46.206Z,7.70
2019-02-26T08:53:17.239Z,7.70
2019-02-26T08:55:48.397Z,7.70
2019-02-26T08:58:19.629Z,7.70
2019-02-26T09:00:50.815Z,7.70
2019-02-26T09:03:22.061Z,7.70
2019-02-26T09:05:53.919Z,7.70
2019-02-26T09:08:26.154Z,7.80
2019-02-26T09:10:57.409Z,7.90
2019-02-26T09:13:28.703Z,8.00
2019-02-26T09:16:01.071Z,8.00
2019-02-26T09:18:37.548Z,8.00
2019-02-26T09:21:07.091Z,8.00
2019-02-26T09:23:38.633Z,8.00
2019-02-26T09:26:09.908Z,8.10
2019-02-26T09:28:41.147Z,8.20
2019-02-26T09:31:14.068Z,8.20
2019-02-26T09:33:45.625Z,8.10
2019-02-26T09:36:20.497Z,8.10
2019-02-26T09:38:51.467Z,8.20
2019-02-26T09:41:22.736Z,8.40
2019-02-26T09:43:53.884Z,8.40
2019-02-26T09:46:25.143Z,8.60
2019-02-26T09:48:57.914Z,8.50
2019-02-26T09:51:31.159Z,8.50
2019-02-26T09:54:03.045Z,8.40
2019-02-26T09:56:34.242Z,8.40
2019-02-26T09:59:07.034Z,8.50
2019-02-26T10:01:40.189Z,8.60
2019-02-26T10:04:11.103Z,8.60
2019-02-26T10:06:42.998Z,8.70
2019-02-26T10:09:16.212Z,9.00
2019-02-26T10:11:49.311Z,9.00
2019-02-26T10:14:20.754Z,9.00
2019-02-26T10:16:54.232Z,9.00
2019-02-26T10:19:24.681Z,9.20
2019-02-26T10:21:57.392Z,9.20
2019-02-26T10:24:30.218Z,9.40
2019-02-26T10:27:05.395Z,9.50
2019-02-26T10:29:36.605Z,9.60
2019-02-26T10:32:11.208Z,9.50
2019-02-26T10:34:40.052Z,9.60
2019-02-26T10:37:11.364Z,9.70
2019-02-26T10:39:44.367Z,9.70
2019-02-26T10:42:18.063Z,9.70
2019-02-26T10:44:48.343Z,9.60
2019-02-26T10:47:19.577Z,9.50
2019-02-26T10:49:51.891Z,9.50
2019-02-26T10:52:24.609Z,9.70
2019-02-26T10:54:56.489Z,10.10
2019-02-26T10:57:28.874Z,10.20
2019-02-26T11:00:02.701Z,10.20
2019-02-26T11:02:34.992Z,10.50
2019-02-26T11:05:08.632Z,10.60
2019-02-26T11:07:40.177Z,10.60
2019-02-26T11:10:12.453Z,10.90
2019-02-26T11:12:45.794Z,11.20
2019-02-26T11:15:17.445Z,11.30
2019-02-26T11:17:51.305Z,11.50
2019-02-26T11:20:22.354Z,11.80
2019-02-26T11:22:54.352Z,12.00
2019-02-26T11:25:27.319Z,12.20
2019-02-26T11:28:00.596Z,12.30
2019-02-26T11:30:32.258Z,12.60
2019-02-26T11:33:06.110Z,12.70
2019-02-26T11:35:36.375Z,13.00
2019-02-26T11:38:09.316Z,13.30
2019-02-26T11:40:40.430Z,13.20
2019-02-26T11:43:14.422Z,13.40
2019-02-26T11:45:44.594Z,13.30
2019-02-26T11:48:17.546Z,13.20
2019-02-26T11:50:49.051Z,13.20
2019-02-26T11:53:20.262Z,13.40
2019-02-26T11:55:52.715Z,13.80
2019-02-26T11:58:25.363Z,13.80
2019-02-26T12:00:58.933Z,13.90
2019-02-26T12:03:33.152Z,13.60
2019-02-26T12:06:03.030Z,13.60
2019-02-26T12:08:34.218Z,13.90
2019-02-26T12:11:06.803Z,14.40
2019-02-26T12:13:39.508Z,14.80
2019-02-26T12:16:11.473Z,15.00
2019-02-26T12:18:44.356Z,15.10
2019-02-26T12:21:15.454Z,15.10
2019-02-26T12:23:46.847Z,15.30
2019-02-26T12:26:19.162Z,15.20
2019-02-26T12:28:52.360Z,15.30
2019-02-26T12:31:25.306Z,15.50
2019-02-26T12:33:56.471Z,15.50
2019-02-26T12:36:29.935Z,15.30
2019-02-26T12:39:02.497Z,15.20
2019-02-26T12:41:36.581Z,14.90
2019-02-26T12:44:10.863Z,14.60
2019-02-26T12:46:40.624Z,14.30
2019-02-26T12:49:12.692Z,14.10
2019-02-26T12:51:44.727Z,14.10
2019-02-26T12:54:15.916Z,13.90
2019-02-26T12:56:49.042Z,13.80
2019-02-26T12:59:20.142Z,13.70
2019-02-26T13:01:51.965Z,13.50
2019-02-26T13:04:25.066Z,13.30
2019-02-26T13:06:56.212Z,13.30
2019-02-26T13:09:27.421Z,13.30
2019-02-26T13:12:02.582Z,13.40
2019-02-26T13:14:31.708Z,13.40
2019-02-26T13:17:02.983Z,13.40
2019-02-26T13:19:36.933Z,13.50
2019-02-26T13:22:09.705Z,13.40
2019-02-26T13:24:40.023Z,13.40
2019-02-26T13:27:11.271Z,13.40
2019-02-26T13:29:47.617Z,13.40
2019-02-26T13:32:17.567Z,13.40
2019-02-26T13:34:48.268Z,13.40
2019-02-26T13:37:34.670Z,13.50
2019-02-26T13:40:04.438Z,13.60
2019-02-26T13:42:35.873Z,13.50
2019-02-26T13:45:08.760Z,13.60
2019-02-26T13:47:40.013Z,13.90
2019-02-26T13:50:13.600Z,14.00
2019-02-26T13:52:45.900Z,14.20
2019-02-26T13:55:17.157Z,14.40
2019-02-26T13:57:48.518Z,14.30
2019-02-26T14:00:26.298Z,14.30
2019-02-26T14:02:53.026Z,14.50
2019-02-26T14:05:24.361Z,14.70
2019-02-26T14:07:55.612Z,14.70
2019-02-26T14:10:29.495Z,14.10
2019-02-26T14:13:00.772Z,13.70
2019-02-26T14:15:32.163Z,13.40
2019-02-26T14:18:03.519Z,13.30
2019-02-26T14:20:34.870Z,13.00
2019-02-26T14:23:06.080Z,12.90
2019-02-26T14:25:37.307Z,12.80
2019-02-26T14:28:08.583Z,12.80
2019-02-26T14:30:39.816Z,12.80
2019-02-26T14:33:11.013Z,12.80
2019-02-26T14:35:43.376Z,12.80
2019-02-26T14:38:14.703Z,12.90
2019-02-26T14:40:46.177Z,12.90
2019-02-26T14:43:18.581Z,12.80
2019-02-26T14:45:49.877Z,12.70
2019-02-26T14:48:21.199Z,12.60
2019-02-26T14:50:52.597Z,12.40
2019-02-26T14:53:23.980Z,12.20
2019-02-26T14:56:05.182Z,12.00
2019-02-26T14:58:36.734Z,12.00
2019-02-26T15:01:08.019Z,12.00
2019-02-26T15:03:39.377Z,12.00
2019-02-26T15:06:10.622Z,11.90
2019-02-26T15:08:42.165Z,11.70
2019-02-26T15:11:13.441Z,11.60
2019-02-26T15:13:44.743Z,11.50
2019-02-26T15:16:16.033Z,11.50
2019-02-26T15:18:47.255Z,11.40
2019-02-26T15:21:18.606Z,11.30
2019-02-26T15:23:50.410Z,11.20
2019-02-26T15:26:22.235Z,11.00
2019-02-26T15:28:53.700Z,10.90
2019-02-26T15:31:25.042Z,10.70
2019-02-26T15:33:56.855Z,10.60
2019-02-26T15:36:28.039Z,10.50
2019-02-26T15:38:59.307Z,10.40
2019-02-26T15:41:30.537Z,10.30
2019-02-26T15:44:01.860Z,10.20
2019-02-26T15:46:33.083Z,10.10
2019-02-26T15:49:07.312Z,10.00
2019-02-26T15:51:37.298Z,9.90
2019-02-26T15:54:08.609Z,9.90
2019-02-26T15:56:40.050Z,9.80
2019-02-26T15:59:11.271Z,9.70
2019-02-26T16:01:42.492Z,9.60
2019-02-26T16:04:13.715Z,9.40
2019-02-26T16:06:45.026Z,9.30
2019-02-26T16:09:16.634Z,9.20
2019-02-26T16:11:47.882Z,9.10
2019-02-26T16:14:19.174Z,9.00
2019-02-26T16:16:50.431Z,9.00
2019-02-26T16:19:22.110Z,8.80
2019-02-26T16:21:53.434Z,8.70
2019-02-26T16:24:24.708Z,8.60
2019-02-26T16:26:55.914Z,8.50
2019-02-26T16:29:27.097Z,8.40
2019-02-26T16:31:58.379Z,8.30
2019-02-26T16:34:29.563Z,8.30
2019-02-26T16:37:03.307Z,8.20
2019-02-26T16:39:33.595Z,8.00
2019-02-26T16:42:04.800Z,7.90
2019-02-26T16:44:36.015Z,7.90
2019-02-26T16:47:07.603Z,7.90
2019-02-26T16:49:38.782Z,7.80
2019-02-26T16:52:10.630Z,7.70
2019-02-26T16:54:41.813Z,7.70
2019-02-26T16:57:13.028Z,7.60
2019-02-26T16:59:44.225Z,7.60
2019-02-26T17:02:15.753Z,7.50
2019-02-26T17:04:47.002Z,7.40
2019-02-26T17:07:18.234Z,7.30
2019-02-26T17:09:49.439Z,7.30
2019-02-26T17:12:20.642Z,7.20
2019-02-26T17:14:52.078Z,7.20
2019-02-26T17:17:23.237Z,7.20
2019-02-26T17:19:54.477Z,7.20
2019-02-26T17:22:25.756Z,7.10
2019-02-26T17:24:57.285Z,7.20
2019-02-26T17:27:28.878Z,7.10
2019-02-26T17:30:00.831Z,7.10
2019-02-26T17:32:35.695Z,7.10
2019-02-26T17:35:07.521Z,7.00
2019-02-26T17:37:41.615Z,7.00
2019-02-26T17:40:13.627Z,7.00
2019-02-26T17:42:44.883Z,7.00
2019-02-26T17:45:18.286Z,7.00
2019-02-26T17:47:49.571Z,6.90
2019-02-26T17:50:23.558Z,6.90
2019-02-26T17:52:54.754Z,6.80
2019-02-26T17:55:26.403Z,6.70
2019-02-26T17:57:57.603Z,6.70
2019-02-26T18:00:29.610Z,6.60
2019-02-26T18:03:00.840Z,6.50
2019-02-26T18:05:32.448Z,6.40
2019-02-26T18:08:04.737Z,6.30
2019-02-26T18:10:42.289Z,6.30
2019-02-26T18:13:15.078Z,6.20
2019-02-26T18:15:46.626Z,6.20
2019-02-26T18:18:18.058Z,6.10
2019-02-26T18:20:50.091Z,6.10
2019-02-26T18:23:21.403Z,6.00
2019-02-26T18:25:53.067Z,6.00
2019-02-26T18:28:24.354Z,5.90
2019-02-26T18:30:55.742Z,5.90
2019-02-26T18:33:26.983Z,5.90
2019-02-26T18:35:59.352Z,5.80
2019-02-26T18:38:31.643Z,5.80
2019-02-26T18:41:03.010Z,5.80
2019-02-26T18:43:34.691Z,5.70
2019-02-26T18:46:06.110Z,5.60
2019-02-26T18:48:37.329Z,5.60
2019-02-26T18:51:09.120Z,5.50
2019-02-26T18:53:40.648Z,5.50
2019-02-26T18:56:12.049Z,5.50
2019-02-26T18:58:43.415Z,5.50
2019-02-26T19:01:14.845Z,5.40
2019-02-26T19:03:46.275Z,5.40
2019-02-26T19:06:18.026Z,5.30
2019-02-26T19:08:49.326Z,5.30
2019-02-26T19:11:20.836Z,5.20
2019-02-26T19:13:53.453Z,5.20
2019-02-26T19:16:25.882Z,5.20
2019-02-26T19:18:57.206Z,5.20
2019-02-26T19:21:31.540Z,5.20
2019-02-26T19:24:04.568Z,5.20
2019-02-26T19:26:35.751Z,5.20
2019-02-26T19:29:07.017Z,5.20
2019-02-26T19:31:42.403Z,5.30
2019-02-26T19:34:12.298Z,5.30
2019-02-26T19:36:45.686Z,5.30
2019-02-26T19:39:16.888Z,5.40
2019-02-26T19:41:48.135Z,5.50
2019-02-26T19:44:19.410Z,5.60
2019-02-26T19:46:51.262Z,5.60
2019-02-26T19:49:22.640Z,5.60
2019-02-26T19:51:53.891Z,5.60
2019-02-26T19:54:25.177Z,5.50
2019-02-26T19:56:57.055Z,5.50
2019-02-26T19:59:29.123Z,5.50
2019-02-26T20:02:00.350Z,5.40
2019-02-26T20:04:31.657Z,5.50
2019-02-26T20:07:02.818Z,5.60
2019-02-26T20:09:34.201Z,5.60
2019-02-26T20:12:05.632Z,5.60
2019-02-26T20:14:36.853Z,5.50
2019-02-26T20:17:14.717Z,5.60
2019-02-26T20:19:41.167Z,5.60
2019-02-26T20:22:12.682Z,5.50
2019-02-26T20:24:44.176Z,5.50
2019-02-26T20:27:15.656Z,5.50
2019-02-26T20:29:46.957Z,5.50
2019-02-26T20:32:18.348Z,5.50
2019-02-26T20:34:49.784Z,5.50
2019-02-26T20:37:21.979Z,5.50
2019-02-26T20:39:54.454Z,5.50
2019-02-26T20:42:26.827Z,5.50
2019-02-26T20:44:59.255Z,5.50
2019-02-26T20:47:31.638Z,5.50
2019-02-26T20:50:04.293Z,5.60
2019-02-26T20:52:35.659Z,5.60
2019-02-26T20:55:08.430Z,5.60
2019-02-26T20:57:39.698Z,5.70
2019-02-26T21:00:16.406Z,5.60
2019-02-26T21:02:47.941Z,5.60
2019-02-26T21:05:19.437Z,5.60
2019-02-26T21:07:51.754Z,5.60
2019-02-26T21:10:23.143Z,5.50
2019-02-26T21:12:55.422Z,5.40
2019-02-26T21:15:26.686Z,5.40
2019-02-26T21:17:58.608Z,5.30
2019-02-26T21:20:30.047Z,5.20
2019-02-26T21:23:01.333Z,5.10
2019-02-26T21:25:32.590Z,5.00
2019-02-26T21:28:03.819Z,4.80
2019-02-26T21:30:37.265Z,4.60
2019-02-26T21:33:08.505Z,4.40
2019-02-26T21:35:39.737Z,4.20
2019-02-26T21:38:13.055Z,4.10
2019-02-26T21:40:44.062Z,3.90
2019-02-26T21:43:15.354Z,3.80
2019-02-26T21:45:49.114Z,3.60
2019-02-26T21:48:19.536Z,3.50
2019-02-26T21:50:54.529Z,3.40
2019-02-26T21:53:23.763Z,3.20
2019-02-26T21:55:55.629Z,3.20
2019-02-26T21:58:27.424Z,3.10
2019-02-26T22:00:58.765Z,3.00
2019-02-26T22:03:30.010Z,2.90
2019-02-26T22:06:05.281Z,2.80
2019-02-26T22:08:34.223Z,2.80
2019-02-26T22:11:05.424Z,2.80
2019-02-26T22:13:36.740Z,2.90
2019-02-26T22:16:07.952Z,3.00
2019-02-26T22:18:39.177Z,3.00
2019-02-26T22:21:10.422Z,3.00
2019-02-26T22:23:41.633Z,3.00
2019-02-26T22:26:12.812Z,3.00
2019-02-26T22:28:44.032Z,2.90
2019-02-26T22:31:15.249Z,2.90
2019-02-26T22:33:46.506Z,2.90
2019-02-26T22:36:18.769Z,2.90
2019-02-26T22:38:49.995Z,3.00
2019-02-26T22:41:21.175Z,3.20
2019-02-26T22:43:52.371Z,3.20
2019-02-26T22:46:23.637Z,3.00
2019-02-26T22:48:54.857Z,3.10
2019-02-26T22:51:26.070Z,3.00
2019-02-26T22:53:57.281Z,2.90
2019-02-26T22:56:28.478Z,2.80
2019-02-26T22:58:59.793Z,2.70
2019-02-26T23:01:37.233Z,2.60
2019-02-26T23:04:09.043Z,2.50
2019-02-26T23:06:40.290Z,2.40
2019-02-26T23:09:17.631Z,2.30
2019-02-26T23:11:48.209Z,2.20
2019-02-26T23:14:19.583Z,2.30
2019-02-26T23:16:52.169Z,2.20
2019-02-26T23:19:24.723Z,2.20
2019-02-26T23:21:56.162Z,2.20
2019-02-26T23:24:29.336Z,2.10
2019-02-26T23:27:01.230Z,2.00
2019-02-26T23:29:32.570Z,1.80
2019-02-26T23:32:06.103Z,1.70
2019-02-26T23:34:37.524Z,1.60
2019-02-26T23:37:09.238Z,1.40
2019-02-26T23:39:40.508Z,1.30
2019-02-26T23:42:11.910Z,1.20
2019-02-26T23:44:43.139Z,1.20
2019-02-26T23:47:14.328Z,1.40
2019-02-26T23:49:47.665Z,1.60
2019-02-26T23:52:18.337Z,1.80
2019-02-26T23:54:49.501Z,2.00
2019-02-26T23:57:22.720Z,2.20
2019-02-26T23:59:54.628Z,2.40
